createdAt,value
2019-04-22T00:00:36.720Z,6.83
2019-04-22T00:03:08.916Z,7.87
2019-04-22T00:05:56.252Z,6.73
2019-04-22T00:08:32.655Z,9.40
2019-04-22T00:11:05.028Z,8.70
2019-04-22T00:13:40.791Z,10.33
2019-04-22T00:15:59.207Z,6.10
2019-04-22T00:18:56.423Z,7.17
2019-04-22T00:21:14.312Z,7.27
2019-04-22T00:23:39.211Z,6.77
2019-04-22T00:26:20.699Z,7.07
2019-04-22T00:28:52.149Z,6.70
2019-04-22T00:31:27.417Z,6.87
2019-04-22T00:33:59.205Z,8.37
2019-04-22T00:36:40.181Z,7.03
2019-04-22T00:39:18.364Z,6.90
2019-04-22T00:41:44.361Z,9.70
2019-04-22T00:44:17.827Z,10.53
2019-04-22T00:46:46.412Z,6.43
2019-04-22T00:51:52.619Z,6.60
2019-04-22T00:54:17.742Z,7.10
2019-04-22T00:56:52.841Z,6.27
2019-04-22T00:59:22.091Z,6.97
2019-04-22T01:01:52.589Z,7.37
2019-04-22T01:04:27.954Z,7.87
2019-04-22T01:07:00.723Z,6.87
2019-04-22T01:09:33.015Z,6.73
2019-04-22T01:12:00.159Z,8.10
2019-04-22T01:14:35.645Z,7.40
2019-04-22T01:17:01.576Z,9.17
2019-04-22T01:19:47.179Z,8.47
2019-04-22T01:22:13.632Z,6.87
2019-04-22T01:24:38.853Z,7.43
2019-04-22T01:27:01.859Z,8.13
2019-04-22T01:29:36.003Z,8.97
2019-04-22T01:31:54.595Z,7.23
2019-04-22T01:34:40.866Z,7.33
2019-04-22T01:37:14.069Z,7.00
2019-04-22T01:40:03.235Z,6.93
2019-04-22T01:42:30.535Z,7.37
2019-04-22T01:44:59.692Z,7.20
2019-04-22T01:47:31.330Z,6.83
2019-04-22T01:50:04.383Z,6.43
2019-04-22T01:52:29.481Z,7.47
2019-04-22T01:55:15.830Z,6.97
2019-04-22T01:57:37.239Z,7.37
2019-04-22T02:00:03.689Z,8.67
2019-04-22T02:02:41.894Z,7.90
2019-04-22T02:05:14.016Z,7.13
2019-04-22T02:07:42.390Z,6.83
2019-04-22T02:10:19.750Z,7.53
2019-04-22T02:12:48.413Z,7.40
2019-04-22T02:15:16.754Z,8.43
2019-04-22T02:17:54.861Z,7.00
2019-04-22T02:20:23.181Z,7.10
2019-04-22T02:26:01.204Z,6.80
2019-04-22T02:28:38.235Z,7.17
2019-04-22T02:41:26.150Z,6.83
2019-04-22T02:51:22.295Z,7.43
2019-04-22T03:01:30.059Z,8.37
2019-04-22T03:06:34.910Z,7.53
2019-04-22T03:09:03.889Z,6.27
2019-04-22T03:11:34.047Z,6.30
2019-04-22T03:16:40.266Z,7.20
2019-04-22T03:21:36.670Z,9.97
2019-04-22T03:26:42.131Z,7.30
2019-04-22T03:29:11.302Z,7.73
2019-04-22T03:44:49.733Z,7.60
2019-04-22T03:47:17.495Z,7.90
2019-04-22T03:52:16.281Z,7.60
2019-04-22T03:54:45.580Z,7.77
2019-04-22T03:59:54.869Z,11.17
2019-04-22T04:02:21.490Z,8.07
2019-04-22T04:04:47.436Z,8.47
2019-04-22T04:12:26.022Z,9.20
2019-04-22T04:17:34.906Z,9.50
2019-04-22T04:22:45.318Z,7.37
2019-04-22T04:25:22.089Z,7.80
2019-04-22T04:28:03.604Z,7.43
2019-04-22T04:32:52.631Z,11.87
2019-04-22T04:37:45.027Z,8.07
2019-04-22T04:40:29.203Z,8.70
2019-04-22T04:42:46.169Z,6.83
2019-04-22T04:45:33.774Z,7.10
2019-04-22T04:50:18.435Z,7.43
2019-04-22T04:53:01.326Z,7.50
2019-04-22T04:55:22.093Z,8.87
2019-04-22T04:58:13.500Z,7.57
2019-04-22T05:05:28.806Z,7.40
2019-04-22T05:08:19.701Z,7.20
2019-04-22T05:10:47.451Z,7.97
2019-04-22T05:13:12.307Z,7.83
2019-04-22T05:15:32.986Z,8.60
2019-04-22T05:18:09.222Z,9.60
2019-04-22T05:20:42.627Z,7.33
2019-04-22T05:23:05.841Z,8.23
2019-04-22T05:25:31.671Z,7.37
2019-04-22T05:28:05.006Z,7.93
2019-04-22T05:30:57.204Z,8.93
2019-04-22T05:33:07.354Z,7.10
2019-04-22T05:35:49.322Z,8.57
2019-04-22T05:38:19.615Z,7.37
2019-04-22T05:40:41.124Z,7.43
2019-04-22T05:43:34.462Z,7.10
2019-04-22T05:45:51.168Z,6.33
2019-04-22T05:48:18.369Z,7.90
2019-04-22T05:50:59.435Z,6.87
2019-04-22T05:53:21.205Z,7.20
2019-04-22T05:55:58.578Z,6.83
2019-04-22T05:58:31.288Z,6.60
2019-04-22T06:03:46.596Z,7.73
2019-04-22T06:06:15.121Z,8.13
2019-04-22T06:08:48.638Z,7.13
2019-04-22T06:11:22.574Z,6.73
2019-04-22T06:13:50.683Z,7.50
2019-04-22T06:16:26.330Z,6.60
2019-04-22T06:19:03.171Z,6.37
2019-04-22T06:21:36.012Z,6.83
2019-04-22T06:24:04.801Z,7.80
2019-04-22T06:26:46.183Z,6.90
2019-04-22T06:29:13.772Z,6.47
2019-04-22T06:31:49.879Z,6.27
2019-04-22T06:34:13.437Z,5.80
2019-04-22T06:36:45.196Z,5.97
2019-04-22T06:39:14.338Z,6.07
2019-04-22T06:46:50.070Z,5.83
2019-04-22T06:49:27.344Z,6.23
2019-04-22T06:51:54.033Z,6.80
2019-04-22T06:54:21.734Z,7.40
2019-04-22T06:56:57.788Z,5.33
2019-04-22T06:59:26.509Z,5.33
2019-04-22T07:02:02.181Z,7.97
2019-04-22T07:04:30.343Z,6.07
2019-04-22T07:07:02.189Z,5.60
2019-04-22T07:09:34.987Z,7.93
2019-04-22T07:12:09.720Z,5.40
2019-04-22T07:14:35.500Z,5.97
2019-04-22T07:17:07.500Z,5.30
2019-04-22T07:19:40.616Z,4.83
2019-04-22T07:22:11.222Z,5.60
2019-04-22T07:27:14.323Z,6.30
2019-04-22T07:29:54.267Z,5.33
2019-04-22T07:32:13.137Z,5.70
2019-04-22T07:37:28.194Z,5.97
2019-04-22T07:40:02.416Z,6.23
2019-04-22T07:42:26.220Z,5.00
2019-04-22T07:44:55.175Z,6.13
2019-04-22T07:49:59.441Z,5.60
2019-04-22T07:52:27.356Z,5.40
2019-04-22T07:55:28.648Z,6.50
2019-04-22T08:00:10.906Z,6.10
2019-04-22T08:02:37.987Z,5.50
2019-04-22T08:05:12.411Z,5.87
2019-04-22T08:07:45.421Z,6.50
2019-04-22T08:10:19.725Z,6.00
2019-04-22T08:12:47.748Z,4.90
2019-04-22T08:15:12.618Z,8.10
2019-04-22T08:17:54.743Z,4.90
2019-04-22T08:20:26.890Z,4.90
2019-04-22T08:22:51.154Z,7.47
2019-04-22T08:25:18.088Z,5.07
2019-04-22T08:27:51.901Z,6.43
2019-04-22T08:30:30.370Z,4.73
2019-04-22T08:33:04.419Z,5.97
2019-04-22T08:35:40.998Z,6.97
2019-04-22T08:37:57.572Z,4.63
2019-04-22T08:40:36.355Z,5.00
2019-04-22T08:45:38.979Z,5.47
2019-04-22T08:48:09.143Z,6.77
2019-04-22T08:50:41.313Z,5.13
2019-04-22T08:53:19.945Z,5.87
2019-04-22T08:55:52.165Z,6.87
2019-04-22T09:00:52.886Z,4.33
2019-04-22T09:03:20.850Z,5.93
2019-04-22T09:10:51.930Z,4.93
2019-04-22T09:13:33.448Z,5.50
2019-04-22T09:15:59.043Z,4.73
2019-04-22T09:18:28.798Z,4.20
2019-04-22T09:21:08.545Z,8.10
2019-04-22T09:23:42.185Z,5.00
2019-04-22T09:26:01.440Z,5.50
2019-04-22T09:28:37.709Z,4.53
2019-04-22T09:31:05.760Z,5.07
2019-04-22T09:33:38.601Z,5.70
2019-04-22T09:36:29.635Z,6.43
2019-04-22T09:38:46.898Z,5.43
2019-04-22T09:41:27.282Z,4.80
2019-04-22T09:43:58.315Z,4.67
2019-04-22T09:46:28.377Z,5.57
2019-04-22T09:51:30.750Z,5.23
2019-04-22T09:54:05.966Z,5.73
2019-04-22T09:56:41.808Z,5.13
2019-04-22T09:59:02.607Z,4.50
2019-04-22T10:01:39.052Z,5.13
2019-04-22T10:04:06.947Z,4.10
2019-04-22T10:06:39.571Z,4.70
2019-04-22T10:09:42.383Z,5.00
2019-04-22T10:11:45.150Z,5.63
2019-04-22T10:14:32.013Z,6.10
2019-04-22T10:17:00.116Z,6.07
2019-04-22T10:19:18.694Z,4.27
2019-04-22T10:22:04.544Z,6.73
2019-04-22T10:24:19.191Z,6.70
2019-04-22T10:26:55.296Z,4.53
2019-04-22T10:29:24.909Z,4.00
2019-04-22T10:31:57.215Z,7.23
2019-04-22T10:34:16.875Z,9.37
2019-04-22T10:36:37.700Z,7.28
2019-04-22T10:39:08.539Z,5.03
2019-04-22T10:41:38.940Z,4.27
2019-04-22T10:44:10.925Z,4.73
2019-04-22T10:46:42.257Z,4.67
2019-04-22T10:49:12.718Z,4.50
2019-04-22T10:51:44.411Z,4.70
2019-04-22T10:54:15.697Z,5.37
2019-04-22T10:56:46.175Z,4.90
2019-04-22T10:59:16.430Z,5.20
2019-04-22T11:01:46.561Z,6.03
2019-04-22T11:04:17.534Z,6.70
2019-04-22T11:06:53.093Z,5.13
2019-04-22T11:09:20.362Z,4.47
2019-04-22T11:11:58.402Z,4.53
2019-04-22T11:14:23.145Z,6.50
2019-04-22T11:16:53.374Z,4.73
2019-04-22T11:19:23.581Z,7.47
2019-04-22T11:22:03.782Z,7.37
2019-04-22T11:24:26.465Z,5.17
2019-04-22T11:26:57.015Z,5.63
2019-04-22T11:29:27.841Z,4.77
2019-04-22T11:31:57.905Z,6.60
2019-04-22T11:34:28.987Z,5.00
2019-04-22T11:36:59.007Z,6.80
2019-04-22T11:39:31.135Z,4.50
2019-04-22T11:42:00.539Z,4.57
2019-04-22T11:44:30.930Z,5.03
2019-04-22T11:47:01.559Z,5.07
2019-04-22T11:49:31.995Z,4.03
2019-04-22T11:52:04.774Z,5.53
2019-04-22T11:54:34.689Z,3.80
2019-04-22T11:57:05.471Z,4.23
2019-04-22T11:59:36.491Z,6.13
2019-04-22T12:02:06.780Z,3.50
2019-04-22T12:04:37.999Z,3.80
2019-04-22T12:07:08.814Z,6.67
2019-04-22T12:09:39.603Z,4.80
2019-04-22T12:12:09.718Z,3.37
2019-04-22T12:14:40.158Z,4.00
2019-04-22T12:17:11.259Z,4.23
2019-04-22T12:19:42.065Z,3.40
2019-04-22T12:22:13.303Z,4.67
2019-04-22T12:24:43.413Z,3.20
2019-04-22T12:27:14.303Z,3.17
2019-04-22T12:29:44.974Z,4.53
2019-04-22T12:32:15.837Z,4.60
2019-04-22T12:34:47.078Z,3.27
2019-04-22T12:37:27.683Z,3.10
2019-04-22T12:39:52.402Z,5.97
2019-04-22T12:42:21.403Z,3.30
2019-04-22T12:44:51.449Z,3.77
2019-04-22T12:47:22.214Z,4.73
2019-04-22T12:49:57.110Z,3.63
2019-04-22T12:52:32.379Z,3.77
2019-04-22T12:54:55.201Z,3.50
2019-04-22T12:57:25.037Z,4.63
2019-04-22T12:59:55.435Z,4.50
2019-04-22T13:02:25.277Z,3.43
2019-04-22T13:04:56.267Z,3.13
2019-04-22T13:07:26.190Z,4.47
2019-04-22T13:09:57.058Z,3.70
2019-04-22T13:12:26.927Z,4.07
2019-04-22T13:14:57.197Z,3.43
2019-04-22T13:17:27.293Z,2.97
2019-04-22T13:19:58.393Z,3.37
2019-04-22T13:22:28.351Z,4.37
2019-04-22T13:24:59.606Z,4.17
2019-04-22T13:27:33.140Z,3.60
2019-04-22T13:30:06.095Z,2.40
2019-04-22T13:32:34.763Z,3.57
2019-04-22T13:35:05.779Z,2.80
2019-04-22T13:37:37.002Z,3.43
2019-04-22T13:40:07.618Z,6.50
2019-04-22T13:42:37.563Z,3.13
2019-04-22T13:45:09.606Z,2.47
2019-04-22T13:48:00.468Z,3.07
2019-04-22T13:51:01.664Z,4.37
2019-04-22T13:55:50.249Z,3.40
2019-04-22T13:58:02.594Z,2.90
2019-04-22T14:00:26.915Z,4.40
2019-04-22T14:03:31.240Z,2.80
2019-04-22T14:06:02.772Z,3.63
2019-04-22T14:08:33.199Z,3.77
2019-04-22T14:11:13.208Z,2.50
2019-04-22T14:13:34.799Z,3.43
2019-04-22T14:16:06.704Z,4.67
2019-04-22T14:18:37.022Z,3.30
2019-04-22T14:21:07.120Z,2.83
2019-04-22T14:23:38.463Z,2.67
2019-04-22T14:26:09.137Z,3.90
2019-04-22T14:28:39.525Z,3.57
2019-04-22T14:31:10.657Z,2.87
2019-04-22T14:33:44.810Z,2.77
2019-04-22T14:36:12.133Z,2.93
2019-04-22T14:38:41.985Z,2.77
2019-04-22T14:41:30.628Z,4.63
2019-04-22T14:45:00.795Z,2.50
2019-04-22T14:46:38.916Z,2.87
2019-04-22T14:49:10.110Z,3.40
2019-04-22T14:51:39.262Z,3.13
2019-04-22T14:54:10.109Z,3.43
2019-04-22T14:56:22.488Z,3.77
2019-04-22T14:58:53.139Z,2.40
2019-04-22T15:01:24.540Z,2.40
2019-04-22T15:03:54.662Z,3.07
2019-04-22T15:06:26.198Z,2.97
2019-04-22T15:08:59.002Z,2.73
2019-04-22T15:11:28.881Z,2.50
2019-04-22T15:13:59.193Z,2.97
2019-04-22T15:16:55.134Z,2.77
2019-04-22T15:19:31.786Z,2.80
2019-04-22T15:22:02.993Z,3.33
2019-04-22T15:24:34.504Z,4.47
2019-04-22T15:27:04.795Z,3.03
2019-04-22T15:29:35.518Z,3.27
2019-04-22T15:32:05.439Z,2.50
2019-04-22T15:34:36.661Z,4.43
2019-04-22T15:37:06.635Z,4.30
2019-04-22T15:39:45.805Z,2.60
2019-04-22T15:42:22.702Z,5.00
2019-04-22T15:44:48.062Z,3.30
2019-04-22T15:47:18.838Z,3.83
2019-04-22T15:49:49.933Z,3.00
2019-04-22T15:52:30.277Z,2.83
2019-04-22T15:54:53.539Z,2.97
2019-04-22T15:57:22.813Z,3.10
2019-04-22T16:00:06.849Z,2.93
2019-04-22T16:02:25.579Z,3.00
2019-04-22T16:04:56.882Z,3.33
2019-04-22T16:07:27.592Z,4.50
2019-04-22T16:09:57.640Z,2.77
2019-04-22T16:12:34.569Z,3.07
2019-04-22T16:14:59.766Z,2.73
2019-04-22T16:17:30.770Z,2.67
2019-04-22T16:20:01.629Z,3.50
2019-04-22T16:22:34.345Z,2.90
2019-04-22T16:25:38.756Z,2.40
2019-04-22T16:28:08.983Z,2.10
2019-04-22T16:30:39.459Z,2.43
2019-04-22T16:33:09.914Z,2.60
2019-04-22T16:35:40.534Z,2.50
2019-04-22T16:38:10.907Z,3.70
2019-04-22T16:40:41.054Z,5.47
2019-04-22T16:43:11.965Z,6.80
2019-04-22T16:45:43.499Z,2.67
2019-04-22T16:48:13.753Z,2.83
2019-04-22T16:50:46.570Z,2.60
2019-04-22T16:53:16.759Z,3.87
2019-04-22T16:55:46.760Z,3.13
2019-04-22T16:58:16.781Z,5.40
2019-04-22T17:00:47.030Z,2.80
2019-04-22T17:03:45.139Z,2.57
2019-04-22T17:06:19.437Z,3.20
2019-04-22T17:08:50.894Z,5.00
2019-04-22T17:11:22.183Z,2.80
2019-04-22T17:13:57.343Z,2.67
2019-04-22T17:16:28.445Z,4.20
2019-04-22T17:18:58.615Z,3.23
2019-04-22T17:21:29.798Z,3.33
2019-04-22T17:24:01.269Z,2.50
2019-04-22T17:26:32.637Z,4.03
2019-04-22T17:29:06.236Z,3.00
2019-04-22T17:31:36.539Z,3.47
2019-04-22T17:34:06.952Z,2.63
2019-04-22T17:36:40.529Z,4.30
2019-04-22T17:39:22.812Z,3.70
2019-04-22T17:42:03.490Z,3.90
2019-04-22T17:44:42.596Z,4.07
2019-04-22T17:47:28.777Z,4.97
2019-04-22T17:50:13.338Z,3.27
2019-04-22T17:52:36.592Z,4.63
2019-04-22T17:55:10.113Z,9.17
2019-04-22T17:57:39.179Z,4.03
2019-04-22T18:00:11.424Z,4.00
2019-04-22T18:02:43.381Z,8.03
2019-04-22T18:05:03.521Z,4.90
2019-04-22T18:07:52.222Z,2.40
2019-04-22T18:13:01.872Z,3.70
2019-04-22T18:15:26.418Z,6.77
2019-04-22T18:18:03.735Z,3.50
2019-04-22T18:20:27.173Z,7.27
2019-04-22T18:22:53.553Z,4.87
2019-04-22T18:25:25.708Z,4.20
2019-04-22T18:30:28.769Z,4.43
2019-04-22T18:33:07.125Z,4.63
2019-04-22T18:35:33.853Z,3.60
2019-04-22T18:38:18.139Z,8.07
2019-04-22T18:40:41.288Z,5.33
2019-04-22T18:43:16.825Z,4.27
2019-04-22T18:45:55.029Z,4.80
2019-04-22T18:48:08.768Z,4.60
2019-04-22T18:50:56.399Z,5.00
2019-04-22T18:53:54.023Z,6.93
2019-04-22T18:56:23.743Z,4.97
2019-04-22T18:58:47.521Z,4.37
2019-04-22T19:01:10.239Z,5.90
2019-04-22T19:03:51.086Z,3.93
2019-04-22T19:06:43.342Z,4.77
2019-04-22T19:09:13.806Z,5.43
2019-04-22T19:11:46.668Z,4.93
2019-04-22T19:14:10.991Z,5.47
2019-04-22T19:16:39.696Z,5.37
2019-04-22T19:21:44.441Z,4.57
2019-04-22T19:24:14.885Z,3.60
2019-04-22T19:29:20.641Z,6.50
2019-04-22T19:31:51.328Z,6.03
2019-04-22T19:34:20.389Z,5.27
2019-04-22T19:36:56.215Z,3.90
2019-04-22T19:39:22.567Z,6.80
2019-04-22T19:42:00.711Z,4.50
2019-04-22T19:44:36.233Z,6.03
2019-04-22T19:47:22.154Z,4.67
2019-04-22T19:49:48.377Z,4.53
2019-04-22T19:52:21.902Z,5.10
2019-04-22T19:54:44.024Z,4.30
2019-04-22T19:57:08.213Z,4.57
2019-04-22T19:59:45.406Z,5.27
2019-04-22T20:02:38.916Z,3.67
2019-04-22T20:05:26.125Z,5.60
2019-04-22T20:07:41.695Z,4.27
2019-04-22T20:10:38.127Z,4.60
2019-04-22T20:12:48.638Z,7.17
2019-04-22T20:15:22.361Z,4.10
2019-04-22T20:18:19.049Z,6.53
2019-04-22T20:20:31.694Z,4.83
2019-04-22T20:22:57.593Z,4.87
2019-04-22T20:25:30.643Z,9.87
2019-04-22T20:28:07.567Z,5.53
2019-04-22T20:30:39.956Z,4.00
2019-04-22T20:33:01.867Z,5.03
2019-04-22T20:35:43.576Z,3.40
2019-04-22T20:38:14.847Z,4.53
2019-04-22T20:40:40.168Z,4.00
2019-04-22T20:43:22.034Z,3.73
2019-04-22T20:45:46.717Z,4.60
2019-04-22T20:48:07.982Z,4.97
2019-04-22T20:50:54.949Z,2.83
2019-04-22T20:53:25.446Z,4.57
2019-04-22T20:55:52.447Z,3.90
2019-04-22T20:58:29.766Z,6.40
2019-04-22T21:00:46.367Z,2.90
2019-04-22T21:03:20.970Z,5.83
2019-04-22T21:05:51.736Z,5.63
2019-04-22T21:08:36.645Z,6.00
2019-04-22T21:10:50.776Z,4.30
2019-04-22T21:13:30.518Z,3.83
2019-04-22T21:16:08.983Z,3.10
2019-04-22T21:18:31.952Z,3.03
2019-04-22T21:21:13.506Z,7.10
2019-04-22T21:23:35.156Z,6.77
2019-04-22T21:26:13.487Z,4.73
2019-04-22T21:28:44.334Z,4.67
2019-04-22T21:31:19.261Z,3.00
2019-04-22T21:33:48.798Z,3.30
2019-04-22T21:36:25.116Z,4.80
2019-04-22T21:38:51.909Z,3.83
2019-04-22T21:41:23.221Z,3.73
2019-04-22T21:43:52.701Z,2.50
2019-04-22T21:46:30.663Z,4.83
2019-04-22T21:49:02.894Z,2.60
2019-04-22T21:51:39.704Z,4.93
2019-04-22T21:54:11.944Z,3.87
2019-04-22T21:56:54.835Z,3.20
2019-04-22T21:59:12.431Z,2.90
2019-04-22T22:02:07.266Z,4.80
2019-04-22T22:04:20.223Z,2.67
2019-04-22T22:06:42.459Z,3.90
2019-04-22T22:09:25.297Z,6.27
2019-04-22T22:11:56.483Z,3.83
2019-04-22T22:14:22.830Z,3.07
2019-04-22T22:16:54.735Z,6.30
2019-04-22T22:19:28.368Z,3.60
2019-04-22T22:22:06.244Z,4.10
2019-04-22T22:24:41.702Z,4.00
2019-04-22T22:27:10.962Z,3.10
2019-04-22T22:29:50.404Z,3.43
2019-04-22T22:32:12.922Z,3.80
2019-04-22T22:34:41.988Z,4.73
2019-04-22T22:37:07.682Z,4.33
2019-04-22T22:39:38.070Z,5.37
2019-04-22T22:41:54.954Z,2.93
2019-04-22T22:44:32.344Z,2.70
2019-04-22T22:47:16.319Z,3.73
2019-04-22T22:49:50.320Z,3.63
2019-04-22T22:54:54.203Z,6.20
2019-04-22T22:57:28.936Z,2.93
2019-04-22T22:59:55.164Z,6.33
2019-04-22T23:02:28.133Z,4.40
2019-04-22T23:04:57.938Z,2.53
2019-04-22T23:07:36.884Z,4.20
2019-04-22T23:10:01.563Z,4.93
2019-04-22T23:12:40.851Z,4.17
2019-04-22T23:15:04.679Z,4.37
2019-04-22T23:17:22.306Z,3.27
2019-04-22T23:19:52.098Z,8.40
2019-04-22T23:22:28.365Z,4.20
2019-04-22T23:25:17.288Z,4.20
2019-04-22T23:27:52.317Z,2.97
2019-04-22T23:30:37.836Z,5.13
2019-04-22T23:33:19.134Z,4.90
2019-04-22T23:35:49.474Z,6.70
2019-04-22T23:38:24.206Z,4.70
2019-04-22T23:41:01.638Z,4.60
2019-04-22T23:43:32.661Z,3.17
2019-04-22T23:46:02.433Z,3.17
2019-04-22T23:48:27.791Z,6.00
2019-04-22T23:51:12.095Z,3.33
2019-04-22T23:53:57.568Z,3.47
2019-04-22T23:56:10.998Z,3.73
2019-04-22T23:59:04.786Z,7.30
